sensor_id;sensor_type;location;lat;lon;timestamp;pressure;altitude;pressure_sealevel;temperature;humidity
44255;BME280;29933;47.226;15.734;2022-07-23T00:00:55;96344.81;;;21.58;83.87
44255;BME280;29933;47.226;15.734;2022-07-23T00:03:21;96345.88;;;21.60;83.80
44255;BME280;29933;47.226;15.734;2022-07-23T00:05:47;96343.44;;;21.62;83.18
44255;BME280;29933;47.226;15.734;2022-07-23T00:08:13;96335.91;;;21.63;83.07
44255;BME280;29933;47.226;15.734;2022-07-23T00:10:39;96327.91;;;21.65;83.08
44255;BME280;29933;47.226;15.734;2022-07-23T00:13:05;96332.66;;;21.64;83.96
44255;BME280;29933;47.226;15.734;2022-07-23T00:15:31;96329.63;;;21.62;83.38
44255;BME280;29933;47.226;15.734;2022-07-23T00:17:57;96325.00;;;21.59;84.36
44255;BME280;29933;47.226;15.734;2022-07-23T00:20:23;96313.31;;;21.55;83.72
44255;BME280;29933;47.226;15.734;2022-07-23T00:22:53;96315.75;;;21.53;84.98
44255;BME280;29933;47.226;15.734;2022-07-23T00:25:23;96313.63;;;21.48;84.52
44255;BME280;29933;47.226;15.734;2022-07-23T00:27:49;96309.63;;;21.49;83.95
44255;BME280;29933;47.226;15.734;2022-07-23T00:30:15;96310.25;;;21.44;84.58
44255;BME280;29933;47.226;15.734;2022-07-23T00:32:55;96313.63;;;21.39;85.97
44255;BME280;29933;47.226;15.734;2022-07-23T00:35:27;96311.47;;;21.33;85.31
44255;BME280;29933;47.226;15.734;2022-07-23T00:37:55;96305.66;;;21.31;85.31
44255;BME280;29933;47.226;15.734;2022-07-23T00:40:21;96302.41;;;21.33;85.29
44255;BME280;29933;47.226;15.734;2022-07-23T00:42:55;96302.56;;;21.29;85.85
44255;BME280;29933;47.226;15.734;2022-07-23T00:45:21;96303.19;;;21.24;86.35
44255;BME280;29933;47.226;15.734;2022-07-23T00:47:47;96306.25;;;21.17;86.31
44255;BME280;29933;47.226;15.734;2022-07-23T00:50:13;96309.19;;;21.13;86.17
44255;BME280;29933;47.226;15.734;2022-07-23T00:52:39;96303.19;;;21.15;86.11
44255;BME280;29933;47.226;15.734;2022-07-23T00:55:07;96307.31;;;21.19;86.00
44255;BME280;29933;47.226;15.734;2022-07-23T00:57:39;96304.13;;;21.21;86.27
44255;BME280;29933;47.226;15.734;2022-07-23T01:00:10;96297.50;;;21.18;86.09
44255;BME280;29933;47.226;15.734;2022-07-23T01:02:37;96299.97;;;21.16;85.94
44255;BME280;29933;47.226;15.734;2022-07-23T01:05:04;96300.09;;;21.13;86.68
44255;BME280;29933;47.226;15.734;2022-07-23T01:07:30;96295.81;;;21.12;86.02
44255;BME280;29933;47.226;15.734;2022-07-23T01:09:57;96303.47;;;21.17;85.79
44255;BME280;29933;47.226;15.734;2022-07-23T01:12:23;96291.06;;;21.22;85.33
44255;BME280;29933;47.226;15.734;2022-07-23T01:14:59;96293.69;;;21.25;85.25
44255;BME280;29933;47.226;15.734;2022-07-23T01:17:26;96299.50;;;21.27;84.61
44255;BME280;29933;47.226;15.734;2022-07-23T01:19:52;96300.28;;;21.28;84.42
44255;BME280;29933;47.226;15.734;2022-07-23T01:22:19;96304.72;;;21.34;83.97
44255;BME280;29933;47.226;15.734;2022-07-23T01:24:46;96293.50;;;21.38;83.33
44255;BME280;29933;47.226;15.734;2022-07-23T01:27:12;96297.19;;;21.44;83.13
44255;BME280;29933;47.226;15.734;2022-07-23T01:29:39;96307.19;;;21.51;82.31
44255;BME280;29933;47.226;15.734;2022-07-23T01:32:06;96306.25;;;21.54;83.00
44255;BME280;29933;47.226;15.734;2022-07-23T01:34:32;96292.13;;;21.52;83.28
44255;BME280;29933;47.226;15.734;2022-07-23T01:36:58;96294.00;;;21.46;83.84
44255;BME280;29933;47.226;15.734;2022-07-23T01:39:23;96283.84;;;21.43;83.58
44255;BME280;29933;47.226;15.734;2022-07-23T01:41:49;96289.38;;;21.43;83.30
44255;BME280;29933;47.226;15.734;2022-07-23T01:44:16;96280.63;;;21.44;83.02
44255;BME280;29933;47.226;15.734;2022-07-23T01:46:42;96283.84;;;21.43;83.29
44255;BME280;29933;47.226;15.734;2022-07-23T01:49:09;96277.72;;;21.39;83.08
44255;BME280;29933;47.226;15.734;2022-07-23T01:51:35;96276.19;;;21.38;82.93
44255;BME280;29933;47.226;15.734;2022-07-23T01:54:01;96275.88;;;21.35;83.60
44255;BME280;29933;47.226;15.734;2022-07-23T01:56:26;96270.22;;;21.30;83.65
44255;BME280;29933;47.226;15.734;2022-07-23T01:58:52;96277.41;;;21.27;83.70
44255;BME280;29933;47.226;15.734;2022-07-23T02:01:18;96283.09;;;21.24;84.65
44255;BME280;29933;47.226;15.734;2022-07-23T02:03:44;96278.19;;;21.18;84.95
44255;BME280;29933;47.226;15.734;2022-07-23T02:06:10;96278.03;;;21.13;85.28
44255;BME280;29933;47.226;15.734;2022-07-23T02:08:36;96274.34;;;21.07;84.84
44255;BME280;29933;47.226;15.734;2022-07-23T02:11:02;96267.28;;;21.06;84.53
44255;BME280;29933;47.226;15.734;2022-07-23T02:13:28;96264.22;;;21.03;85.58
44255;BME280;29933;47.226;15.734;2022-07-23T02:15:54;96272.78;;;21.06;85.21
44255;BME280;29933;47.226;15.734;2022-07-23T02:18:20;96262.97;;;21.04;85.26
44255;BME280;29933;47.226;15.734;2022-07-23T02:20:46;96268.81;;;21.07;85.32
44255;BME280;29933;47.226;15.734;2022-07-23T02:23:12;96266.06;;;20.97;86.88
44255;BME280;29933;47.226;15.734;2022-07-23T02:25:38;96267.25;;;20.87;88.32
44255;BME280;29933;47.226;15.734;2022-07-23T02:28:04;96261.13;;;20.83;86.35
44255;BME280;29933;47.226;15.734;2022-07-23T02:30:30;96261.91;;;20.83;87.34
44255;BME280;29933;47.226;15.734;2022-07-23T02:32:56;96275.38;;;20.81;88.11
44255;BME280;29933;47.226;15.734;2022-07-23T02:35:22;96271.84;;;20.71;89.11
44255;BME280;29933;47.226;15.734;2022-07-23T02:37:48;96266.56;;;20.64;88.79
44255;BME280;29933;47.226;15.734;2022-07-23T02:40:14;96267.97;;;20.69;87.38
44255;BME280;29933;47.226;15.734;2022-07-23T02:42:40;96272.31;;;20.79;86.69
44255;BME280;29933;47.226;15.734;2022-07-23T02:45:08;96268.50;;;20.86;85.97
44255;BME280;29933;47.226;15.734;2022-07-23T02:47:34;96270.31;;;20.89;86.65
44255;BME280;29933;47.226;15.734;2022-07-23T02:49:59;96269.72;;;20.85;87.08
44255;BME280;29933;47.226;15.734;2022-07-23T02:52:25;96271.09;;;20.80;86.96
44255;BME280;29933;47.226;15.734;2022-07-23T02:54:51;96270.63;;;20.82;86.88
44255;BME280;29933;47.226;15.734;2022-07-23T02:57:17;96271.53;;;20.79;87.53
44255;BME280;29933;47.226;15.734;2022-07-23T02:59:43;96279.75;;;20.69;89.92
44255;BME280;29933;47.226;15.734;2022-07-23T03:02:09;96272.38;;;20.57;90.21
44255;BME280;29933;47.226;15.734;2022-07-23T03:04:35;96263.94;;;20.51;89.67
44255;BME280;29933;47.226;15.734;2022-07-23T03:07:01;96260.72;;;20.53;90.56
44255;BME280;29933;47.226;15.734;2022-07-23T03:09:26;96260.84;;;20.49;91.01
44255;BME280;29933;47.226;15.734;2022-07-23T03:11:52;96257.31;;;20.39;91.00
44255;BME280;29933;47.226;15.734;2022-07-23T03:14:18;96257.31;;;20.39;90.94
44255;BME280;29933;47.226;15.734;2022-07-23T03:16:44;96256.41;;;20.43;91.79
44255;BME280;29933;47.226;15.734;2022-07-23T03:19:10;96255.78;;;20.38;91.71
44255;BME280;29933;47.226;15.734;2022-07-23T03:21:36;96263.75;;;20.36;92.24
44255;BME280;29933;47.226;15.734;2022-07-23T03:24:07;96261.88;;;20.33;91.83
44255;BME280;29933;47.226;15.734;2022-07-23T03:26:34;96260.66;;;20.34;91.46
44255;BME280;29933;47.226;15.734;2022-07-23T03:29:00;96263.56;;;20.31;92.94
44255;BME280;29933;47.226;15.734;2022-07-23T03:31:27;96267.25;;;20.28;92.17
44255;BME280;29933;47.226;15.734;2022-07-23T03:33:53;96264.03;;;20.29;90.93
44255;BME280;29933;47.226;15.734;2022-07-23T03:36:18;96258.22;;;20.36;90.55
44255;BME280;29933;47.226;15.734;2022-07-23T03:38:44;96244.16;;;20.44;89.27
44255;BME280;29933;47.226;15.734;2022-07-23T03:41:10;96245.09;;;20.50;89.32
44255;BME280;29933;47.226;15.734;2022-07-23T03:43:36;96257.06;;;20.56;88.57
44255;BME280;29933;47.226;15.734;2022-07-23T03:46:04;96249.09;;;20.58;88.97
44255;BME280;29933;47.226;15.734;2022-07-23T03:48:30;96254.59;;;20.58;nan
44255;BME280;29933;47.226;15.734;2022-07-23T03:50:56;96253.97;;;20.54;89.09
44255;BME280;29933;47.226;15.734;2022-07-23T03:53:21;96261.50;;;20.53;89.79
44255;BME280;29933;47.226;15.734;2022-07-23T03:55:47;96255.34;;;20.49;89.34
44255;BME280;29933;47.226;15.734;2022-07-23T03:58:13;96254.91;;;20.51;89.31
44255;BME280;29933;47.226;15.734;2022-07-23T04:00:39;96266.25;;;20.53;90.33
44255;BME280;29933;47.226;15.734;2022-07-23T04:03:05;96268.69;;;20.51;90.31
44255;BME280;29933;47.226;15.734;2022-07-23T04:05:31;96265.63;;;20.49;90.03
44255;BME280;29933;47.226;15.734;2022-07-23T04:07:57;96268.84;;;20.47;89.68
44255;BME280;29933;47.226;15.734;2022-07-23T04:10:22;96261.47;;;20.44;89.47
44255;BME280;29933;47.226;15.734;2022-07-23T04:12:48;96275.44;;;20.50;88.83
44255;BME280;29933;47.226;15.734;2022-07-23T04:15:14;96261.50;;;20.53;88.51
44255;BME280;29933;47.226;15.734;2022-07-23T04:17:40;96264.41;;;20.59;88.82
44255;BME280;29933;47.226;15.734;2022-07-23T04:20:06;96264.28;;;20.63;87.48
44255;BME280;29933;47.226;15.734;2022-07-23T04:22:32;96266.88;;;20.66;88.64
44255;BME280;29933;47.226;15.734;2022-07-23T04:24:58;96269.03;;;20.62;90.54
44255;BME280;29933;47.226;15.734;2022-07-23T04:27:24;96273.63;;;20.56;88.19
44255;BME280;29933;47.226;15.734;2022-07-23T04:29:50;96268.72;;;20.60;89.54
44255;BME280;29933;47.226;15.734;2022-07-23T04:32:16;96267.16;;;20.50;91.87
44255;BME280;29933;47.226;15.734;2022-07-23T04:34:42;96277.06;;;20.38;91.83
44255;BME280;29933;47.226;15.734;2022-07-23T04:37:07;96278.28;;;20.37;91.19
44255;BME280;29933;47.226;15.734;2022-07-23T04:39:33;96277.41;;;20.40;90.01
44255;BME280;29933;47.226;15.734;2022-07-23T04:41:59;96272.03;;;20.46;89.60
44255;BME280;29933;47.226;15.734;2022-07-23T04:44:25;96259.97;;;20.52;88.93
44255;BME280;29933;47.226;15.734;2022-07-23T04:46:54;96262.88;;;20.58;89.34
44255;BME280;29933;47.226;15.734;2022-07-23T04:49:20;96263.53;;;20.62;87.87
44255;BME280;29933;47.226;15.734;2022-07-23T04:51:46;96263.81;;;20.64;89.04
44255;BME280;29933;47.226;15.734;2022-07-23T04:54:13;96265.66;;;20.67;88.55
44255;BME280;29933;47.226;15.734;2022-07-23T04:56:39;96256.94;;;20.69;88.40
44255;BME280;29933;47.226;15.734;2022-07-23T04:59:06;96241.78;;;20.74;88.18
44255;BME280;29933;47.226;15.734;2022-07-23T05:01:32;96252.53;;;20.81;88.14
44255;BME280;29933;47.226;15.734;2022-07-23T05:03:58;96254.38;;;20.84;86.56
44255;BME280;29933;47.226;15.734;2022-07-23T05:06:24;96266.66;;;20.92;86.27
44255;BME280;29933;47.226;15.734;2022-07-23T05:08:50;96262.81;;;20.99;86.10
44255;BME280;29933;47.226;15.734;2022-07-23T05:11:15;96265.72;;;21.04;86.81
44255;BME280;29933;47.226;15.734;2022-07-23T05:13:41;96270.97;;;21.12;84.40
44255;BME280;29933;47.226;15.734;2022-07-23T05:16:07;96265.88;;;21.19;84.70
44255;BME280;29933;47.226;15.734;2022-07-23T05:18:33;96271.13;;;21.27;84.66
44255;BME280;29933;47.226;15.734;2022-07-23T05:20:59;96267.88;;;21.28;85.56
44255;BME280;29933;47.226;15.734;2022-07-23T05:23:25;96273.41;;;21.28;84.49
44255;BME280;29933;47.226;15.734;2022-07-23T05:25:51;96263.59;;;21.36;83.98
44255;BME280;29933;47.226;15.734;2022-07-23T05:28:17;96271.41;;;21.47;84.89
44255;BME280;29933;47.226;15.734;2022-07-23T05:30:42;96272.50;;;21.50;83.33
44255;BME280;29933;47.226;15.734;2022-07-23T05:33:08;96276.19;;;21.56;84.28
44255;BME280;29933;47.226;15.734;2022-07-23T05:35:34;96272.03;;;21.51;87.60
44255;BME280;29933;47.226;15.734;2022-07-23T05:38:00;96267.88;;;21.47;88.30
44255;BME280;29933;47.226;15.734;2022-07-23T05:40:26;96269.13;;;21.46;86.24
44255;BME280;29933;47.226;15.734;2022-07-23T05:42:52;96262.03;;;21.54;84.83
44255;BME280;29933;47.226;15.734;2022-07-23T05:45:18;96260.22;;;21.60;89.08
44255;BME280;29933;47.226;15.734;2022-07-23T05:47:46;96253.94;;;21.60;86.78
44255;BME280;29933;47.226;15.734;2022-07-23T05:50:14;96254.97;;;21.72;90.15
44255;BME280;29933;47.226;15.734;2022-07-23T05:52:40;96254.34;;;21.86;84.49
44255;BME280;29933;47.226;15.734;2022-07-23T05:55:07;96262.09;;;22.06;85.79
44255;BME280;29933;47.226;15.734;2022-07-23T05:57:33;96265.25;;;22.23;85.18
44255;BME280;29933;47.226;15.734;2022-07-23T05:59:59;96257.50;;;22.37;82.77
44255;BME280;29933;47.226;15.734;2022-07-23T06:02:25;96260.19;;;22.64;80.27
44255;BME280;29933;47.226;15.734;2022-07-23T06:04:51;96264.53;;;22.80;80.54
44255;BME280;29933;47.226;15.734;2022-07-23T06:07:17;96267.78;;;23.03;79.27
44255;BME280;29933;47.226;15.734;2022-07-23T06:09:43;96267.81;;;23.18;80.25
44255;BME280;29933;47.226;15.734;2022-07-23T06:12:09;96269.41;;;23.34;80.28
44255;BME280;29933;47.226;15.734;2022-07-23T06:14:34;96268.47;;;23.52;80.11
44255;BME280;29933;47.226;15.734;2022-07-23T06:17:00;96263.31;;;23.60;80.35
44255;BME280;29933;47.226;15.734;2022-07-23T06:19:27;96264.66;;;23.65;79.23
44255;BME280;29933;47.226;15.734;2022-07-23T06:21:52;96267.63;;;23.76;79.18
44255;BME280;29933;47.226;15.734;2022-07-23T06:24:18;96273.38;;;23.87;80.98
44255;BME280;29933;47.226;15.734;2022-07-23T06:26:44;96264.88;;;23.91;82.73
44255;BME280;29933;47.226;15.734;2022-07-23T06:29:11;96268.91;;;24.05;79.50
44255;BME280;29933;47.226;15.734;2022-07-23T06:31:37;96277.88;;;24.30;79.46
44255;BME280;29933;47.226;15.734;2022-07-23T06:34:03;96279.56;;;24.42;80.89
44255;BME280;29933;47.226;15.734;2022-07-23T06:36:29;96281.47;;;24.51;73.72
44255;BME280;29933;47.226;15.734;2022-07-23T06:38:55;96273.13;;;24.66;80.97
44255;BME280;29933;47.226;15.734;2022-07-23T06:41:21;96283.38;;;24.80;81.03
44255;BME280;29933;47.226;15.734;2022-07-23T06:43:50;96296.25;;;24.98;74.42
44255;BME280;29933;47.226;15.734;2022-07-23T06:46:18;96291.19;;;25.17;76.60
44255;BME280;29933;47.226;15.734;2022-07-23T06:48:45;96276.72;;;25.34;74.04
44255;BME280;29933;47.226;15.734;2022-07-23T06:51:11;96282.72;;;25.47;72.41
44255;BME280;29933;47.226;15.734;2022-07-23T06:53:36;96280.59;;;25.63;72.79
44255;BME280;29933;47.226;15.734;2022-07-23T06:56:02;96278.72;;;25.80;77.66
44255;BME280;29933;47.226;15.734;2022-07-23T06:58:28;96281.88;;;25.94;79.12
44255;BME280;29933;47.226;15.734;2022-07-23T07:00:55;96286.31;;;26.06;74.67
44255;BME280;29933;47.226;15.734;2022-07-23T07:03:22;96287.66;;;26.16;78.32
44255;BME280;29933;47.226;15.734;2022-07-23T07:05:48;96291.81;;;26.27;73.05
44255;BME280;29933;47.226;15.734;2022-07-23T07:08:15;96285.84;;;26.45;76.31
44255;BME280;29933;47.226;15.734;2022-07-23T07:10:41;96291.00;;;26.58;73.60
44255;BME280;29933;47.226;15.734;2022-07-23T07:13:08;96293.38;;;26.71;68.99
44255;BME280;29933;47.226;15.734;2022-07-23T07:15:34;96292.25;;;26.95;68.48
44255;BME280;29933;47.226;15.734;2022-07-23T07:18:00;96283.75;;;27.15;69.73
44255;BME280;29933;47.226;15.734;2022-07-23T07:20:26;96289.94;;;27.42;74.25
44255;BME280;29933;47.226;15.734;2022-07-23T07:22:51;96290.00;;;27.71;76.06
44255;BME280;29933;47.226;15.734;2022-07-23T07:25:17;96290.53;;;27.98;74.55
44255;BME280;29933;47.226;15.734;2022-07-23T07:27:43;96296.41;;;28.22;74.04
44255;BME280;29933;47.226;15.734;2022-07-23T07:30:11;96287.03;;;28.31;64.43
44255;BME280;29933;47.226;15.734;2022-07-23T07:32:37;96290.56;;;28.20;73.60
44255;BME280;29933;47.226;15.734;2022-07-23T07:35:05;96294.59;;;28.02;68.41
44255;BME280;29933;47.226;15.734;2022-07-23T07:37:31;96293.84;;;27.85;66.71
44255;BME280;29933;47.226;15.734;2022-07-23T07:39:57;96297.09;;;27.77;76.06
44255;BME280;29933;47.226;15.734;2022-07-23T07:42:23;96294.84;;;27.76;65.28
44255;BME280;29933;47.226;15.734;2022-07-23T07:44:49;96302.19;;;27.85;64.59
44255;BME280;29933;47.226;15.734;2022-07-23T07:47:15;96304.75;;;27.94;65.20
44255;BME280;29933;47.226;15.734;2022-07-23T07:49:44;96291.28;;;27.92;66.40
44255;BME280;29933;47.226;15.734;2022-07-23T07:52:10;96300.44;;;27.93;75.63
44255;BME280;29933;47.226;15.734;2022-07-23T07:54:37;96308.81;;;27.99;76.29
44255;BME280;29933;47.226;15.734;2022-07-23T07:57:08;96306.06;;;28.04;72.92
44255;BME280;29933;47.226;15.734;2022-07-23T07:59:34;96310.38;;;28.11;76.18
44255;BME280;29933;47.226;15.734;2022-07-23T08:02:00;96317.22;;;28.27;74.35
44255;BME280;29933;47.226;15.734;2022-07-23T08:04:26;96311.38;;;28.53;71.99
44255;BME280;29933;47.226;15.734;2022-07-23T08:06:52;96309.28;;;28.99;75.81
44255;BME280;29933;47.226;15.734;2022-07-23T08:09:18;96308.88;;;29.43;76.76
44255;BME280;29933;47.226;15.734;2022-07-23T08:11:45;96308.66;;;29.82;73.84
44255;BME280;29933;47.226;15.734;2022-07-23T08:14:11;96309.75;;;30.15;71.28
44255;BME280;29933;47.226;15.734;2022-07-23T08:16:38;96309.50;;;30.13;65.79
44255;BME280;29933;47.226;15.734;2022-07-23T08:19:07;96310.22;;;30.19;67.67
44255;BME280;29933;47.226;15.734;2022-07-23T08:21:33;96310.97;;;30.20;62.89
44255;BME280;29933;47.226;15.734;2022-07-23T08:23:58;96310.09;;;30.36;67.93
44255;BME280;29933;47.226;15.734;2022-07-23T08:26:24;96309.84;;;30.34;71.12
44255;BME280;29933;47.226;15.734;2022-07-23T08:28:50;96309.44;;;30.19;70.34
44255;BME280;29933;47.226;15.734;2022-07-23T08:31:16;96309.31;;;30.05;64.63
44255;BME280;29933;47.226;15.734;2022-07-23T08:33:49;96310.88;;;29.95;60.98
44255;BME280;29933;47.226;15.734;2022-07-23T08:36:15;96301.00;;;29.88;68.19
44255;BME280;29933;47.226;15.734;2022-07-23T08:38:41;96306.34;;;29.92;61.68
44255;BME280;29933;47.226;15.734;2022-07-23T08:41:09;96303.44;;;30.09;69.14
44255;BME280;29933;47.226;15.734;2022-07-23T08:43:36;96304.66;;;30.14;66.13
44255;BME280;29933;47.226;15.734;2022-07-23T08:46:04;96308.66;;;30.24;51.77
44255;BME280;29933;47.226;15.734;2022-07-23T08:48:35;96298.38;;;30.32;46.98
44255;BME280;29933;47.226;15.734;2022-07-23T08:51:05;96299.06;;;30.44;47.39
44255;BME280;29933;47.226;15.734;2022-07-23T08:53:33;96296.00;;;30.73;49.86
44255;BME280;29933;47.226;15.734;2022-07-23T08:56:02;96298.19;;;30.85;49.36
44255;BME280;29933;47.226;15.734;2022-07-23T08:58:29;96300.22;;;30.85;47.26
44255;BME280;29933;47.226;15.734;2022-07-23T09:00:55;96309.44;;;30.80;44.89
44255;BME280;29933;47.226;15.734;2022-07-23T09:03:30;96302.88;;;30.96;46.95
44255;BME280;29933;47.226;15.734;2022-07-23T09:05:57;96302.31;;;31.04;50.66
44255;BME280;29933;47.226;15.734;2022-07-23T09:08:33;96294.63;;;31.29;49.75
44255;BME280;29933;47.226;15.734;2022-07-23T09:11:06;96288.28;;;31.28;42.38
44255;BME280;29933;47.226;15.734;2022-07-23T09:13:42;96301.03;;;31.05;40.94
44255;BME280;29933;47.226;15.734;2022-07-23T09:16:28;96295.78;;;30.95;43.78
44255;BME280;29933;47.226;15.734;2022-07-23T09:21:32;96296.47;;;31.01;52.02
44255;BME280;29933;47.226;15.734;2022-07-23T09:24:12;96297.06;;;30.94;58.49
44255;BME280;29933;47.226;15.734;2022-07-23T09:26:46;96290.59;;;30.80;56.98
44255;BME280;29933;47.226;15.734;2022-07-23T09:29:18;96293.28;;;30.67;62.36
44255;BME280;29933;47.226;15.734;2022-07-23T09:34:23;96298.22;;;30.55;64.31
44255;BME280;29933;47.226;15.734;2022-07-23T09:36:56;96294.69;;;30.49;69.27
44255;BME280;29933;47.226;15.734;2022-07-23T09:39:30;96288.34;;;30.43;69.92
44255;BME280;29933;47.226;15.734;2022-07-23T09:41:57;96287.69;;;30.36;67.59
44255;BME280;29933;47.226;15.734;2022-07-23T09:44:23;96286.47;;;30.26;67.42
44255;BME280;29933;47.226;15.734;2022-07-23T09:46:52;96292.41;;;30.17;66.36
44255;BME280;29933;47.226;15.734;2022-07-23T09:49:23;96291.34;;;30.20;69.81
44255;BME280;29933;47.226;15.734;2022-07-23T09:51:56;96291.94;;;30.13;72.58
44255;BME280;29933;47.226;15.734;2022-07-23T09:54:35;96293.31;;;30.00;56.54
44255;BME280;29933;47.226;15.734;2022-07-23T09:57:11;96295.38;;;29.88;52.12
44255;BME280;29933;47.226;15.734;2022-07-23T09:59:42;96298.25;;;29.83;56.24
44255;BME280;29933;47.226;15.734;2022-07-23T10:02:11;96299.00;;;29.78;52.57
44255;BME280;29933;47.226;15.734;2022-07-23T10:04:40;96304.91;;;29.74;59.74
44255;BME280;29933;47.226;15.734;2022-07-23T10:07:08;96307.66;;;29.80;68.17
44255;BME280;29933;47.226;15.734;2022-07-23T10:09:45;96308.13;;;29.89;62.50
44255;BME280;29933;47.226;15.734;2022-07-23T10:12:14;96304.25;;;29.98;68.54
44255;BME280;29933;47.226;15.734;2022-07-23T10:14:42;96306.72;;;30.08;69.71
44255;BME280;29933;47.226;15.734;2022-07-23T10:17:09;96304.66;;;30.14;73.70
44255;BME280;29933;47.226;15.734;2022-07-23T10:19:36;96298.28;;;30.13;74.32
44255;BME280;29933;47.226;15.734;2022-07-23T10:22:15;96298.28;;;30.13;75.49
44255;BME280;29933;47.226;15.734;2022-07-23T10:24:58;96285.72;;;30.26;75.82
44255;BME280;29933;47.226;15.734;2022-07-23T10:33:30;96273.00;;;30.55;60.22
44255;BME280;29933;47.226;15.734;2022-07-23T10:36:25;96262.56;;;30.80;55.49
44255;BME280;29933;47.226;15.734;2022-07-23T10:41:45;96256.56;;;31.91;53.90
44255;BME280;29933;47.226;15.734;2022-07-23T10:44:18;96261.59;;;32.44;52.01
44255;BME280;29933;47.226;15.734;2022-07-23T10:47:28;96257.06;;;32.68;52.48
44255;BME280;29933;47.226;15.734;2022-07-23T10:58:05;96257.47;;;32.12;45.83
44255;BME280;29933;47.226;15.734;2022-07-23T11:00:33;96254.53;;;32.05;44.12
44255;BME280;29933;47.226;15.734;2022-07-23T11:03:04;96256.50;;;32.10;42.92
44255;BME280;29933;47.226;15.734;2022-07-23T11:05:45;96250.53;;;32.33;43.93
44255;BME280;29933;47.226;15.734;2022-07-23T11:08:17;96245.03;;;32.40;44.53
44255;BME280;29933;47.226;15.734;2022-07-23T11:10:51;96248.72;;;32.49;43.43
44255;BME280;29933;47.226;15.734;2022-07-23T11:13:59;96249.25;;;32.47;45.36
44255;BME280;29933;47.226;15.734;2022-07-23T11:16:26;96242.88;;;32.60;47.27
44255;BME280;29933;47.226;15.734;2022-07-23T11:18:58;96246.94;;;32.78;43.72
44255;BME280;29933;47.226;15.734;2022-07-23T11:21:41;96245.41;;;32.90;44.47
44255;BME280;29933;47.226;15.734;2022-07-23T11:24:10;96247.44;;;33.03;42.18
44255;BME280;29933;47.226;15.734;2022-07-23T11:32:18;96231.38;;;33.25;41.84
44255;BME280;29933;47.226;15.734;2022-07-23T11:34:47;96232.69;;;33.37;42.39
44255;BME280;29933;47.226;15.734;2022-07-23T11:37:38;96225.88;;;33.67;43.25
44255;BME280;29933;47.226;15.734;2022-07-23T11:40:11;96229.06;;;33.85;41.21
44255;BME280;29933;47.226;15.734;2022-07-23T11:42:58;96229.50;;;33.89;41.75
44255;BME280;29933;47.226;15.734;2022-07-23T11:45:34;96227.09;;;33.93;40.88
44255;BME280;29933;47.226;15.734;2022-07-23T11:48:02;96220.28;;;33.88;38.90
44255;BME280;29933;47.226;15.734;2022-07-23T11:50:30;96219.94;;;33.92;41.02
44255;BME280;29933;47.226;15.734;2022-07-23T11:52:56;96223.78;;;34.23;41.23
44255;BME280;29933;47.226;15.734;2022-07-23T11:55:22;96217.78;;;34.48;39.89
44255;BME280;29933;47.226;15.734;2022-07-23T11:57:52;96211.47;;;34.63;40.81
44255;BME280;29933;47.226;15.734;2022-07-23T12:00:23;96215.53;;;34.47;37.29
44255;BME280;29933;47.226;15.734;2022-07-23T12:02:53;96210.25;;;34.22;39.99
44255;BME280;29933;47.226;15.734;2022-07-23T12:05:28;96205.28;;;34.36;40.20
44255;BME280;29933;47.226;15.734;2022-07-23T12:07:56;96205.72;;;34.40;39.29
44255;BME280;29933;47.226;15.734;2022-07-23T12:10:40;96198.59;;;34.47;39.93
44255;BME280;29933;47.226;15.734;2022-07-23T12:13:12;96212.00;;;34.33;38.40
44255;BME280;29933;47.226;15.734;2022-07-23T12:15:46;96207.91;;;34.34;39.08
44255;BME280;29933;47.226;15.734;2022-07-23T12:18:17;96200.13;;;34.48;38.82
44255;BME280;29933;47.226;15.734;2022-07-23T12:20:55;96198.34;;;34.66;38.81
44255;BME280;29933;47.226;15.734;2022-07-23T12:23:24;96200.38;;;34.86;37.83
44255;BME280;29933;47.226;15.734;2022-07-23T12:25:52;96200.13;;;34.84;38.23
44255;BME280;29933;47.226;15.734;2022-07-23T12:28:30;96192.84;;;34.89;37.50
44255;BME280;29933;47.226;15.734;2022-07-23T12:30:57;96186.59;;;34.46;36.76
44255;BME280;29933;47.226;15.734;2022-07-23T12:33:36;96190.13;;;34.18;38.00
44255;BME280;29933;47.226;15.734;2022-07-23T12:36:07;96185.69;;;34.30;39.06
44255;BME280;29933;47.226;15.734;2022-07-23T12:38:59;96182.84;;;34.51;39.08
44255;BME280;29933;47.226;15.734;2022-07-23T12:41:26;96171.75;;;34.53;36.91
44255;BME280;29933;47.226;15.734;2022-07-23T12:43:51;96176.63;;;34.45;37.65
44255;BME280;29933;47.226;15.734;2022-07-23T12:46:20;96162.56;;;34.53;36.97
44255;BME280;29933;47.226;15.734;2022-07-23T12:48:51;96162.34;;;34.51;35.11
44255;BME280;29933;47.226;15.734;2022-07-23T12:51:19;96160.66;;;34.48;37.35
44255;BME280;29933;47.226;15.734;2022-07-23T12:53:52;96159.78;;;34.32;35.52
44255;BME280;29933;47.226;15.734;2022-07-23T12:56:26;96167.56;;;34.18;37.10
44255;BME280;29933;47.226;15.734;2022-07-23T13:01:39;96168.56;;;33.99;37.26
44255;BME280;29933;47.226;15.734;2022-07-23T13:04:14;96169.31;;;34.00;37.04
44255;BME280;29933;47.226;15.734;2022-07-23T13:06:54;96175.66;;;33.93;36.61
44255;BME280;29933;47.226;15.734;2022-07-23T13:09:29;96170.81;;;33.80;37.39
44255;BME280;29933;47.226;15.734;2022-07-23T13:11:57;96175.13;;;33.81;37.32
44255;BME280;29933;47.226;15.734;2022-07-23T13:14:25;96165.13;;;33.93;36.84
44255;BME280;29933;47.226;15.734;2022-07-23T13:16:52;96172.72;;;34.06;36.17
44255;BME280;29933;47.226;15.734;2022-07-23T13:19:19;96159.91;;;34.26;36.08
44255;BME280;29933;47.226;15.734;2022-07-23T13:21:45;96157.03;;;34.18;33.78
44255;BME280;29933;47.226;15.734;2022-07-23T13:24:12;96155.69;;;34.12;35.05
44255;BME280;29933;47.226;15.734;2022-07-23T13:26:39;96156.47;;;34.41;36.15